sensor_id;sensor_type;location;lat;lon;timestamp;P1;durP1;ratioP1;P2;durP2;ratioP2
74945;SDS011;63509;45.250;38.102;2023-01-16T00:01:15;15.43;;;5.40;;
74945;SDS011;63509;45.250;38.102;2023-01-16T00:03:41;10.95;;;4.05;;
74945;SDS011;63509;45.250;38.102;2023-01-16T00:06:08;23.55;;;5.50;;
74945;SDS011;63509;45.250;38.102;2023-01-16T00:08:35;16.65;;;6.03;;
74945;SDS011;63509;45.250;38.102;2023-01-16T00:11:01;17.77;;;4.45;;
74945;SDS011;63509;45.250;38.102;2023-01-16T00:13:27;20.27;;;5.90;;
74945;SDS011;63509;45.250;38.102;2023-01-16T00:15:54;10.50;;;4.68;;
74945;SDS011;63509;45.250;38.102;2023-01-16T00:18:20;13.48;;;5.05;;
74945;SDS011;63509;45.250;38.102;2023-01-16T00:20:47;18.88;;;4.72;;
74945;SDS011;63509;45.250;38.102;2023-01-16T00:23:14;17.48;;;7.82;;
74945;SDS011;63509;45.250;38.102;2023-01-16T00:25:41;8.18;;;4.45;;
74945;SDS011;63509;45.250;38.102;2023-01-16T00:28:10;12.40;;;5.00;;
74945;SDS011;63509;45.250;38.102;2023-01-16T00:30:38;20.80;;;5.10;;
74945;SDS011;63509;45.250;38.102;2023-01-16T00:33:05;17.40;;;5.00;;
74945;SDS011;63509;45.250;38.102;2023-01-16T00:35:33;29.65;;;9.55;;
74945;SDS011;63509;45.250;38.102;2023-01-16T00:37:59;28.17;;;8.13;;
74945;SDS011;63509;45.250;38.102;2023-01-16T00:40:26;23.25;;;7.10;;
74945;SDS011;63509;45.250;38.102;2023-01-16T00:42:53;24.80;;;6.82;;
74945;SDS011;63509;45.250;38.102;2023-01-16T00:45:20;19.92;;;6.10;;
74945;SDS011;63509;45.250;38.102;2023-01-16T00:47:46;18.95;;;6.28;;
74945;SDS011;63509;45.250;38.102;2023-01-16T00:50:13;25.95;;;8.30;;
74945;SDS011;63509;45.250;38.102;2023-01-16T00:52:39;20.67;;;6.22;;
74945;SDS011;63509;45.250;38.102;2023-01-16T00:55:06;28.10;;;5.93;;
74945;SDS011;63509;45.250;38.102;2023-01-16T00:57:33;7.25;;;4.03;;
74945;SDS011;63509;45.250;38.102;2023-01-16T00:59:59;18.33;;;7.32;;
74945;SDS011;63509;45.250;38.102;2023-01-16T01:02:27;26.17;;;7.90;;
74945;SDS011;63509;45.250;38.102;2023-01-16T01:04:54;34.80;;;8.75;;
74945;SDS011;63509;45.250;38.102;2023-01-16T01:07:20;21.15;;;7.18;;
74945;SDS011;63509;45.250;38.102;2023-01-16T01:09:46;12.98;;;6.22;;
74945;SDS011;63509;45.250;38.102;2023-01-16T01:12:14;26.92;;;6.88;;
74945;SDS011;63509;45.250;38.102;2023-01-16T01:14:40;32.67;;;6.28;;
74945;SDS011;63509;45.250;38.102;2023-01-16T01:17:06;15.75;;;5.82;;
74945;SDS011;63509;45.250;38.102;2023-01-16T01:19:32;16.23;;;7.03;;
74945;SDS011;63509;45.250;38.102;2023-01-16T01:21:58;28.10;;;7.55;;
74945;SDS011;63509;45.250;38.102;2023-01-16T01:24:24;25.15;;;6.28;;
74945;SDS011;63509;45.250;38.102;2023-01-16T01:26:50;18.13;;;5.72;;
74945;SDS011;63509;45.250;38.102;2023-01-16T01:29:16;21.98;;;6.75;;
74945;SDS011;63509;45.250;38.102;2023-01-16T01:31:42;13.07;;;7.13;;
74945;SDS011;63509;45.250;38.102;2023-01-16T01:34:08;21.23;;;7.32;;
74945;SDS011;63509;45.250;38.102;2023-01-16T01:36:34;13.23;;;6.18;;
74945;SDS011;63509;45.250;38.102;2023-01-16T01:39:00;13.45;;;6.88;;
74945;SDS011;63509;45.250;38.102;2023-01-16T01:41:26;14.20;;;5.00;;
74945;SDS011;63509;45.250;38.102;2023-01-16T01:43:52;14.07;;;6.22;;
74945;SDS011;63509;45.250;38.102;2023-01-16T01:46:27;26.73;;;6.38;;
74945;SDS011;63509;45.250;38.102;2023-01-16T01:49:00;10.07;;;5.45;;
74945;SDS011;63509;45.250;38.102;2023-01-16T01:51:34;20.35;;;6.75;;
74945;SDS011;63509;45.250;38.102;2023-01-16T01:54:07;13.35;;;6.15;;
74945;SDS011;63509;45.250;38.102;2023-01-16T01:56:39;15.23;;;6.07;;
74945;SDS011;63509;45.250;38.102;2023-01-16T01:59:17;10.40;;;5.47;;
74945;SDS011;63509;45.250;38.102;2023-01-16T02:01:49;12.48;;;5.10;;
74945;SDS011;63509;45.250;38.102;2023-01-16T02:04:16;12.15;;;5.07;;
74945;SDS011;63509;45.250;38.102;2023-01-16T02:06:51;12.65;;;4.25;;
74945;SDS011;63509;45.250;38.102;2023-01-16T02:09:21;9.55;;;4.97;;
74945;SDS011;63509;45.250;38.102;2023-01-16T02:14:27;21.60;;;5.65;;
74945;SDS011;63509;45.250;38.102;2023-01-16T02:17:01;13.32;;;5.53;;
74945;SDS011;63509;45.250;38.102;2023-01-16T02:31:33;15.70;;;5.57;;
74945;SDS011;63509;45.250;38.102;2023-01-16T02:34:15;16.50;;;6.05;;
74945;SDS011;63509;45.250;38.102;2023-01-16T02:37:30;14.90;;;6.72;;
74945;SDS011;63509;45.250;38.102;2023-01-16T02:40:52;11.18;;;5.35;;
74945;SDS011;63509;45.250;38.102;2023-01-16T02:46:19;19.90;;;5.57;;
74945;SDS011;63509;45.250;38.102;2023-01-16T02:49:09;8.07;;;4.57;;
74945;SDS011;63509;45.250;38.102;2023-01-16T02:54:27;20.67;;;5.53;;
74945;SDS011;63509;45.250;38.102;2023-01-16T02:57:06;16.05;;;5.15;;
74945;SDS011;63509;45.250;38.102;2023-01-16T02:59:35;13.75;;;7.20;;
74945;SDS011;63509;45.250;38.102;2023-01-16T03:02:02;18.48;;;6.90;;
74945;SDS011;63509;45.250;38.102;2023-01-16T03:10:06;16.42;;;6.82;;
74945;SDS011;63509;45.250;38.102;2023-01-16T03:15:26;14.45;;;6.50;;
74945;SDS011;63509;45.250;38.102;2023-01-16T03:29:22;22.38;;;6.78;;
74945;SDS011;63509;45.250;38.102;2023-01-16T03:40:19;14.32;;;5.55;;
74945;SDS011;63509;45.250;38.102;2023-01-16T03:42:55;18.23;;;6.72;;
74945;SDS011;63509;45.250;38.102;2023-01-16T03:45:35;26.55;;;7.75;;
74945;SDS011;63509;45.250;38.102;2023-01-16T03:48:08;16.10;;;6.80;;
74945;SDS011;63509;45.250;38.102;2023-01-16T03:50:40;16.08;;;6.18;;
74945;SDS011;63509;45.250;38.102;2023-01-16T03:53:10;14.75;;;7.18;;
74945;SDS011;63509;45.250;38.102;2023-01-16T03:55:43;23.15;;;7.15;;
74945;SDS011;63509;45.250;38.102;2023-01-16T03:58:24;18.42;;;7.70;;
74945;SDS011;63509;45.250;38.102;2023-01-16T04:07:17;18.08;;;8.05;;
74945;SDS011;63509;45.250;38.102;2023-01-16T04:09:59;18.73;;;7.25;;
74945;SDS011;63509;45.250;38.102;2023-01-16T04:12:30;16.63;;;6.88;;
74945;SDS011;63509;45.250;38.102;2023-01-16T04:15:05;21.52;;;7.70;;
74945;SDS011;63509;45.250;38.102;2023-01-16T04:17:36;17.67;;;9.20;;
74945;SDS011;63509;45.250;38.102;2023-01-16T04:20:04;28.52;;;8.23;;
74945;SDS011;63509;45.250;38.102;2023-01-16T04:22:31;35.08;;;7.93;;
74945;SDS011;63509;45.250;38.102;2023-01-16T04:24:58;14.52;;;5.65;;
74945;SDS011;63509;45.250;38.102;2023-01-16T04:27:27;25.58;;;7.68;;
74945;SDS011;63509;45.250;38.102;2023-01-16T04:29:53;21.73;;;8.70;;
74945;SDS011;63509;45.250;38.102;2023-01-16T04:32:19;16.65;;;7.80;;
74945;SDS011;63509;45.250;38.102;2023-01-16T04:34:45;23.63;;;7.75;;
74945;SDS011;63509;45.250;38.102;2023-01-16T04:37:15;14.45;;;6.78;;
74945;SDS011;63509;45.250;38.102;2023-01-16T04:39:43;27.90;;;8.70;;
74945;SDS011;63509;45.250;38.102;2023-01-16T04:42:09;22.73;;;7.95;;
74945;SDS011;63509;45.250;38.102;2023-01-16T04:44:35;31.85;;;7.50;;
74945;SDS011;63509;45.250;38.102;2023-01-16T04:47:01;24.40;;;8.98;;
74945;SDS011;63509;45.250;38.102;2023-01-16T04:49:27;24.17;;;8.60;;
74945;SDS011;63509;45.250;38.102;2023-01-16T04:51:53;15.20;;;7.55;;
74945;SDS011;63509;45.250;38.102;2023-01-16T04:54:19;19.08;;;7.75;;
74945;SDS011;63509;45.250;38.102;2023-01-16T04:56:47;32.85;;;10.60;;
74945;SDS011;63509;45.250;38.102;2023-01-16T04:59:13;17.77;;;9.23;;
74945;SDS011;63509;45.250;38.102;2023-01-16T05:01:39;16.73;;;7.18;;
74945;SDS011;63509;45.250;38.102;2023-01-16T05:04:06;14.85;;;7.82;;
74945;SDS011;63509;45.250;38.102;2023-01-16T05:06:33;28.40;;;7.88;;
74945;SDS011;63509;45.250;38.102;2023-01-16T05:09:00;32.55;;;11.48;;
74945;SDS011;63509;45.250;38.102;2023-01-16T05:11:27;12.75;;;8.30;;
74945;SDS011;63509;45.250;38.102;2023-01-16T05:13:54;26.90;;;9.30;;
74945;SDS011;63509;45.250;38.102;2023-01-16T05:16:21;21.05;;;9.85;;
74945;SDS011;63509;45.250;38.102;2023-01-16T05:18:47;21.80;;;10.00;;
74945;SDS011;63509;45.250;38.102;2023-01-16T05:21:13;28.27;;;9.93;;
74945;SDS011;63509;45.250;38.102;2023-01-16T05:23:39;20.58;;;9.13;;
74945;SDS011;63509;45.250;38.102;2023-01-16T05:26:05;14.32;;;8.27;;
74945;SDS011;63509;45.250;38.102;2023-01-16T05:28:32;22.08;;;7.63;;
74945;SDS011;63509;45.250;38.102;2023-01-16T05:30:59;18.60;;;7.35;;
74945;SDS011;63509;45.250;38.102;2023-01-16T05:33:25;25.42;;;9.27;;
74945;SDS011;63509;45.250;38.102;2023-01-16T05:35:51;36.33;;;8.88;;
74945;SDS011;63509;45.250;38.102;2023-01-16T05:38:19;23.30;;;9.55;;
74945;SDS011;63509;45.250;38.102;2023-01-16T05:40:45;19.55;;;8.60;;
74945;SDS011;63509;45.250;38.102;2023-01-16T05:43:13;30.55;;;10.70;;
74945;SDS011;63509;45.250;38.102;2023-01-16T05:45:39;20.15;;;8.90;;
74945;SDS011;63509;45.250;38.102;2023-01-16T05:48:06;21.83;;;8.30;;
74945;SDS011;63509;45.250;38.102;2023-01-16T05:50:32;26.80;;;8.80;;
74945;SDS011;63509;45.250;38.102;2023-01-16T05:52:58;34.65;;;10.60;;
74945;SDS011;63509;45.250;38.102;2023-01-16T05:55:24;17.58;;;8.50;;
74945;SDS011;63509;45.250;38.102;2023-01-16T05:57:50;20.38;;;8.48;;
74945;SDS011;63509;45.250;38.102;2023-01-16T06:00:17;24.27;;;7.80;;
74945;SDS011;63509;45.250;38.102;2023-01-16T06:02:43;20.95;;;7.75;;
74945;SDS011;63509;45.250;38.102;2023-01-16T06:05:11;15.52;;;9.05;;
74945;SDS011;63509;45.250;38.102;2023-01-16T06:07:38;24.33;;;7.55;;
74945;SDS011;63509;45.250;38.102;2023-01-16T06:10:05;16.45;;;6.85;;
74945;SDS011;63509;45.250;38.102;2023-01-16T06:12:31;23.15;;;8.88;;
74945;SDS011;63509;45.250;38.102;2023-01-16T06:14:58;19.90;;;7.32;;
74945;SDS011;63509;45.250;38.102;2023-01-16T06:17:24;15.48;;;7.00;;
74945;SDS011;63509;45.250;38.102;2023-01-16T06:19:49;23.58;;;7.47;;
74945;SDS011;63509;45.250;38.102;2023-01-16T06:22:16;11.88;;;5.68;;
74945;SDS011;63509;45.250;38.102;2023-01-16T06:24:42;19.45;;;7.07;;
74945;SDS011;63509;45.250;38.102;2023-01-16T06:27:08;14.52;;;5.75;;
74945;SDS011;63509;45.250;38.102;2023-01-16T06:29:35;25.23;;;6.47;;
74945;SDS011;63509;45.250;38.102;2023-01-16T06:32:03;22.88;;;6.38;;
74945;SDS011;63509;45.250;38.102;2023-01-16T06:34:30;13.82;;;6.47;;
74945;SDS011;63509;45.250;38.102;2023-01-16T06:36:56;14.70;;;6.15;;
74945;SDS011;63509;45.250;38.102;2023-01-16T06:39:21;24.33;;;6.63;;
74945;SDS011;63509;45.250;38.102;2023-01-16T06:41:48;15.18;;;6.03;;
74945;SDS011;63509;45.250;38.102;2023-01-16T06:44:14;12.25;;;6.10;;
74945;SDS011;63509;45.250;38.102;2023-01-16T06:46:40;19.08;;;5.90;;
74945;SDS011;63509;45.250;38.102;2023-01-16T06:49:06;23.65;;;7.47;;
74945;SDS011;63509;45.250;38.102;2023-01-16T06:51:32;21.90;;;5.15;;
74945;SDS011;63509;45.250;38.102;2023-01-16T06:53:58;15.13;;;4.97;;
74945;SDS011;63509;45.250;38.102;2023-01-16T06:56:24;11.30;;;5.90;;
74945;SDS011;63509;45.250;38.102;2023-01-16T06:58:50;19.42;;;6.20;;
74945;SDS011;63509;45.250;38.102;2023-01-16T07:01:16;24.75;;;5.30;;
74945;SDS011;63509;45.250;38.102;2023-01-16T07:03:42;13.43;;;5.35;;
74945;SDS011;63509;45.250;38.102;2023-01-16T07:06:08;12.75;;;5.82;;
74945;SDS011;63509;45.250;38.102;2023-01-16T07:08:34;25.92;;;5.97;;
74945;SDS011;63509;45.250;38.102;2023-01-16T07:11:00;19.08;;;5.07;;
74945;SDS011;63509;45.250;38.102;2023-01-16T07:13:26;19.25;;;6.20;;
74945;SDS011;63509;45.250;38.102;2023-01-16T07:15:54;9.43;;;4.75;;
74945;SDS011;63509;45.250;38.102;2023-01-16T07:18:39;22.02;;;5.30;;
74945;SDS011;63509;45.250;38.102;2023-01-16T07:21:25;24.98;;;5.80;;
74945;SDS011;63509;45.250;38.102;2023-01-16T07:24:12;11.45;;;5.75;;
74945;SDS011;63509;45.250;38.102;2023-01-16T07:26:46;21.13;;;6.38;;
74945;SDS011;63509;45.250;38.102;2023-01-16T07:29:16;12.98;;;5.55;;
74945;SDS011;63509;45.250;38.102;2023-01-16T07:31:42;18.70;;;5.22;;
74945;SDS011;63509;45.250;38.102;2023-01-16T07:34:10;22.27;;;6.63;;
74945;SDS011;63509;45.250;38.102;2023-01-16T07:36:36;17.40;;;7.07;;
74945;SDS011;63509;45.250;38.102;2023-01-16T07:39:02;15.77;;;5.68;;
74945;SDS011;63509;45.250;38.102;2023-01-16T07:41:28;23.65;;;7.05;;
74945;SDS011;63509;45.250;38.102;2023-01-16T07:43:54;15.50;;;6.47;;
74945;SDS011;63509;45.250;38.102;2023-01-16T07:46:20;24.90;;;5.53;;
74945;SDS011;63509;45.250;38.102;2023-01-16T07:48:46;21.13;;;6.80;;
74945;SDS011;63509;45.250;38.102;2023-01-16T07:51:12;28.10;;;6.28;;
74945;SDS011;63509;45.250;38.102;2023-01-16T07:53:38;29.75;;;6.18;;
74945;SDS011;63509;45.250;38.102;2023-01-16T07:56:04;14.30;;;5.53;;
74945;SDS011;63509;45.250;38.102;2023-01-16T07:58:30;15.43;;;6.38;;
74945;SDS011;63509;45.250;38.102;2023-01-16T08:00:56;27.25;;;7.10;;
74945;SDS011;63509;45.250;38.102;2023-01-16T08:03:23;20.92;;;7.90;;
74945;SDS011;63509;45.250;38.102;2023-01-16T08:05:53;27.80;;;6.53;;
74945;SDS011;63509;45.250;38.102;2023-01-16T08:08:21;22.17;;;6.32;;
74945;SDS011;63509;45.250;38.102;2023-01-16T08:10:52;16.38;;;6.25;;
74945;SDS011;63509;45.250;38.102;2023-01-16T08:13:19;25.45;;;6.18;;
74945;SDS011;63509;45.250;38.102;2023-01-16T08:15:45;21.80;;;5.68;;
74945;SDS011;63509;45.250;38.102;2023-01-16T08:18:13;23.88;;;6.05;;
74945;SDS011;63509;45.250;38.102;2023-01-16T08:20:39;23.13;;;8.50;;
74945;SDS011;63509;45.250;38.102;2023-01-16T08:23:07;35.20;;;9.15;;
74945;SDS011;63509;45.250;38.102;2023-01-16T08:25:33;21.10;;;7.03;;
74945;SDS011;63509;45.250;38.102;2023-01-16T08:27:59;26.80;;;6.30;;
74945;SDS011;63509;45.250;38.102;2023-01-16T08:30:25;18.77;;;5.88;;
74945;SDS011;63509;45.250;38.102;2023-01-16T08:32:56;22.30;;;6.82;;
74945;SDS011;63509;45.250;38.102;2023-01-16T08:35:23;16.60;;;6.80;;
74945;SDS011;63509;45.250;38.102;2023-01-16T08:37:49;23.50;;;9.57;;
74945;SDS011;63509;45.250;38.102;2023-01-16T08:40:17;23.17;;;9.15;;
74945;SDS011;63509;45.250;38.102;2023-01-16T08:42:43;32.80;;;9.70;;
74945;SDS011;63509;45.250;38.102;2023-01-16T08:45:28;24.83;;;7.63;;
74945;SDS011;63509;45.250;38.102;2023-01-16T08:48:15;27.55;;;9.27;;
74945;SDS011;63509;45.250;38.102;2023-01-16T08:51:06;33.08;;;6.00;;
74945;SDS011;63509;45.250;38.102;2023-01-16T08:53:52;28.00;;;6.13;;
74945;SDS011;63509;45.250;38.102;2023-01-16T08:56:19;15.80;;;4.85;;
74945;SDS011;63509;45.250;38.102;2023-01-16T08:58:46;28.30;;;7.55;;
74945;SDS011;63509;45.250;38.102;2023-01-16T09:01:13;10.43;;;5.38;;
74945;SDS011;63509;45.250;38.102;2023-01-16T09:03:39;22.67;;;7.55;;
74945;SDS011;63509;45.250;38.102;2023-01-16T09:06:05;23.15;;;6.63;;
74945;SDS011;63509;45.250;38.102;2023-01-16T09:08:31;27.10;;;9.20;;
74945;SDS011;63509;45.250;38.102;2023-01-16T09:10:58;26.70;;;9.32;;
74945;SDS011;63509;45.250;38.102;2023-01-16T09:13:43;23.05;;;11.55;;
74945;SDS011;63509;45.250;38.102;2023-01-16T09:16:24;26.35;;;10.18;;
74945;SDS011;63509;45.250;38.102;2023-01-16T09:18:50;26.25;;;8.27;;
74945;SDS011;63509;45.250;38.102;2023-01-16T09:21:17;28.83;;;6.38;;
74945;SDS011;63509;45.250;38.102;2023-01-16T09:23:44;18.23;;;5.80;;
74945;SDS011;63509;45.250;38.102;2023-01-16T09:26:11;21.55;;;6.28;;
74945;SDS011;63509;45.250;38.102;2023-01-16T09:28:37;11.75;;;4.30;;
74945;SDS011;63509;45.250;38.102;2023-01-16T09:31:03;10.60;;;4.55;;
74945;SDS011;63509;45.250;38.102;2023-01-16T09:33:29;18.17;;;5.35;;
74945;SDS011;63509;45.250;38.102;2023-01-16T09:35:55;9.52;;;3.70;;
74945;SDS011;63509;45.250;38.102;2023-01-16T09:38:21;11.70;;;4.78;;
74945;SDS011;63509;45.250;38.102;2023-01-16T09:40:48;9.32;;;4.55;;
74945;SDS011;63509;45.250;38.102;2023-01-16T09:43:37;25.13;;;5.57;;
74945;SDS011;63509;45.250;38.102;2023-01-16T09:48:50;12.77;;;3.85;;
74945;SDS011;63509;45.250;38.102;2023-01-16T09:51:26;16.60;;;4.38;;
74945;SDS011;63509;45.250;38.102;2023-01-16T09:53:57;17.13;;;4.03;;
74945;SDS011;63509;45.250;38.102;2023-01-16T09:56:46;14.45;;;4.25;;
74945;SDS011;63509;45.250;38.102;2023-01-16T09:59:36;15.68;;;4.28;;
74945;SDS011;63509;45.250;38.102;2023-01-16T10:04:54;12.85;;;4.07;;
74945;SDS011;63509;45.250;38.102;2023-01-16T10:07:43;9.68;;;3.90;;
74945;SDS011;63509;45.250;38.102;2023-01-16T10:16:02;14.75;;;4.57;;
74945;SDS011;63509;45.250;38.102;2023-01-16T10:19:05;9.02;;;3.90;;
74945;SDS011;63509;45.250;38.102;2023-01-16T10:24:16;18.48;;;5.13;;
74945;SDS011;63509;45.250;38.102;2023-01-16T10:26:57;15.70;;;4.40;;
74945;SDS011;63509;45.250;38.102;2023-01-16T10:29:51;15.93;;;4.57;;
74945;SDS011;63509;45.250;38.102;2023-01-16T10:32:26;17.77;;;4.30;;
74945;SDS011;63509;45.250;38.102;2023-01-16T10:34:59;18.38;;;4.57;;
74945;SDS011;63509;45.250;38.102;2023-01-16T10:37:33;12.23;;;4.63;;
74945;SDS011;63509;45.250;38.102;2023-01-16T10:40:17;12.82;;;5.13;;
74945;SDS011;63509;45.250;38.102;2023-01-16T10:43:14;13.23;;;4.28;;
74945;SDS011;63509;45.250;38.102;2023-01-16T10:46:16;21.38;;;5.57;;
74945;SDS011;63509;45.250;38.102;2023-01-16T10:49:03;16.83;;;4.63;;
74945;SDS011;63509;45.250;38.102;2023-01-16T10:51:47;14.43;;;6.03;;
74945;SDS011;63509;45.250;38.102;2023-01-16T10:54:14;14.10;;;4.28;;
74945;SDS011;63509;45.250;38.102;2023-01-16T10:56:41;21.33;;;5.78;;
74945;SDS011;63509;45.250;38.102;2023-01-16T10:59:11;13.10;;;5.28;;
74945;SDS011;63509;45.250;38.102;2023-01-16T11:01:39;11.55;;;5.22;;
74945;SDS011;63509;45.250;38.102;2023-01-16T11:04:09;23.30;;;5.75;;
74945;SDS011;63509;45.250;38.102;2023-01-16T11:06:37;24.58;;;7.20;;
74945;SDS011;63509;45.250;38.102;2023-01-16T11:09:17;12.77;;;5.57;;
74945;SDS011;63509;45.250;38.102;2023-01-16T11:11:44;17.80;;;7.03;;
74945;SDS011;63509;45.250;38.102;2023-01-16T11:14:38;24.75;;;7.57;;
74945;SDS011;63509;45.250;38.102;2023-01-16T11:17:29;17.77;;;7.28;;
74945;SDS011;63509;45.250;38.102;2023-01-16T11:20:20;22.05;;;7.38;;
74945;SDS011;63509;45.250;38.102;2023-01-16T11:23:03;25.40;;;6.45;;
74945;SDS011;63509;45.250;38.102;2023-01-16T11:25:40;26.25;;;7.32;;
74945;SDS011;63509;45.250;38.102;2023-01-16T11:28:07;25.38;;;7.32;;
74945;SDS011;63509;45.250;38.102;2023-01-16T11:30:42;20.20;;;6.97;;
74945;SDS011;63509;45.250;38.102;2023-01-16T11:33:14;31.15;;;7.57;;
74945;SDS011;63509;45.250;38.102;2023-01-16T11:35:46;30.25;;;7.93;;
74945;SDS011;63509;45.250;38.102;2023-01-16T11:38:17;25.70;;;7.90;;
74945;SDS011;63509;45.250;38.102;2023-01-16T11:40:44;28.92;;;10.00;;
74945;SDS011;63509;45.250;38.102;2023-01-16T11:43:13;38.80;;;9.50;;
74945;SDS011;63509;45.250;38.102;2023-01-16T11:46:01;18.58;;;7.88;;
74945;SDS011;63509;45.250;38.102;2023-01-16T11:48:37;33.47;;;8.90;;
74945;SDS011;63509;45.250;38.102;2023-01-16T11:51:05;23.77;;;8.25;;
74945;SDS011;63509;45.250;38.102;2023-01-16T11:53:36;32.05;;;8.93;;
74945;SDS011;63509;45.250;38.102;2023-01-16T12:01:00;27.45;;;9.80;;
74945;SDS011;63509;45.250;38.102;2023-01-16T12:11:15;32.58;;;10.25;;
74945;SDS011;63509;45.250;38.102;2023-01-16T12:16:55;37.58;;;11.32;;
74945;SDS011;63509;45.250;38.102;2023-01-16T12:25:15;28.95;;;10.68;;
74945;SDS011;63509;45.250;38.102;2023-01-16T12:28:10;22.48;;;10.80;;
74945;SDS011;63509;45.250;38.102;2023-01-16T12:34:01;20.48;;;8.93;;
74945;SDS011;63509;45.250;38.102;2023-01-16T12:42:25;23.13;;;10.82;;
74945;SDS011;63509;45.250;38.102;2023-01-16T12:53:22;30.70;;;10.38;;
74945;SDS011;63509;45.250;38.102;2023-01-16T12:56:30;28.98;;;9.30;;
74945;SDS011;63509;45.250;38.102;2023-01-16T12:59:14;28.45;;;9.52;;
74945;SDS011;63509;45.250;38.102;2023-01-16T13:01:45;23.40;;;9.73;;
74945;SDS011;63509;45.250;38.102;2023-01-16T13:04:25;24.65;;;11.23;;
74945;SDS011;63509;45.250;38.102;2023-01-16T13:06:56;33.13;;;12.23;;
74945;SDS011;63509;45.250;38.102;2023-01-16T13:12:42;30.05;;;11.00;;
74945;SDS011;63509;45.250;38.102;2023-01-16T13:15:30;27.55;;;10.52;;
74945;SDS011;63509;45.250;38.102;2023-01-16T13:20:37;44.97;;;11.13;;
74945;SDS011;63509;45.250;38.102;2023-01-16T13:23:38;28.35;;;10.35;;
74945;SDS011;63509;45.250;38.102;2023-01-16T13:26:05;23.27;;;10.02;;
74945;SDS011;63509;45.250;38.102;2023-01-16T13:31:39;34.42;;;9.68;;
74945;SDS011;63509;45.250;38.102;2023-01-16T13:34:31;19.73;;;9.05;;
74945;SDS011;63509;45.250;38.102;2023-01-16T13:40:51;18.48;;;7.38;;
74945;SDS011;63509;45.250;38.102;2023-01-16T13:42:56;25.75;;;8.35;;
74945;SDS011;63509;45.250;38.102;2023-01-16T13:45:45;22.65;;;7.97;;
74945;SDS011;63509;45.250;38.102;2023-01-16T13:48:14;23.60;;;9.40;;
74945;SDS011;63509;45.250;38.102;2023-01-16T13:50:52;22.27;;;9.05;;
74945;SDS011;63509;45.250;38.102;2023-01-16T13:53:26;21.73;;;8.15;;
74945;SDS011;63509;45.250;38.102;2023-01-16T13:56:05;24.67;;;9.90;;
74945;SDS011;63509;45.250;38.102;2023-01-16T13:58:38;25.63;;;9.48;;
74945;SDS011;63509;45.250;38.102;2023-01-16T14:01:05;29.95;;;10.10;;
74945;SDS011;63509;45.250;38.102;2023-01-16T14:03:35;31.67;;;11.48;;
74945;SDS011;63509;45.250;38.102;2023-01-16T14:23:03;28.77;;;12.80;;
74945;SDS011;63509;45.250;38.102;2023-01-16T14:25:54;27.83;;;11.73;;
74945;SDS011;63509;45.250;38.102;2023-01-16T14:28:21;38.13;;;11.63;;
74945;SDS011;63509;45.250;38.102;2023-01-16T14:30:51;49.50;;;12.65;;
74945;SDS011;63509;45.250;38.102;2023-01-16T14:33:18;26.10;;;10.57;;
74945;SDS011;63509;45.250;38.102;2023-01-16T14:35:47;27.77;;;10.95;;
74945;SDS011;63509;45.250;38.102;2023-01-16T14:38:20;32.92;;;11.93;;
74945;SDS011;63509;45.250;38.102;2023-01-16T14:40:50;27.80;;;10.48;;
74945;SDS011;63509;45.250;38.102;2023-01-16T14:46:52;42.05;;;11.70;;
74945;SDS011;63509;45.250;38.102;2023-01-16T14:49:42;26.58;;;10.90;;
74945;SDS011;63509;45.250;38.102;2023-01-16T14:52:48;31.40;;;10.30;;
74945;SDS011;63509;45.250;38.102;2023-01-16T14:58:37;29.88;;;9.93;;
74945;SDS011;63509;45.250;38.102;2023-01-16T15:01:14;25.90;;;10.35;;
74945;SDS011;63509;45.250;38.102;2023-01-16T15:04:04;23.52;;;10.48;;
74945;SDS011;63509;45.250;38.102;2023-01-16T15:06:37;22.40;;;9.30;;
74945;SDS011;63509;45.250;38.102;2023-01-16T15:09:06;33.63;;;11.95;;
74945;SDS011;63509;45.250;38.102;2023-01-16T15:12:00;23.88;;;10.18;;
74945;SDS011;63509;45.250;38.102;2023-01-16T15:14:28;33.25;;;11.07;;
74945;SDS011;63509;45.250;38.102;2023-01-16T15:19:57;32.78;;;11.77;;
74945;SDS011;63509;45.250;38.102;2023-01-16T15:22:55;35.58;;;13.18;;
74945;SDS011;63509;45.250;38.102;2023-01-16T15:25:45;31.50;;;10.98;;
74945;SDS011;63509;45.250;38.102;2023-01-16T15:31:18;23.98;;;10.98;;
74945;SDS011;63509;45.250;38.102;2023-01-16T15:34:00;35.03;;;11.35;;
74945;SDS011;63509;45.250;38.102;2023-01-16T15:36:49;51.05;;;14.68;;
74945;SDS011;63509;45.250;38.102;2023-01-16T15:41:44;48.58;;;15.48;;
74945;SDS011;63509;45.250;38.102;2023-01-16T15:44:33;42.20;;;13.82;;
74945;SDS011;63509;45.250;38.102;2023-01-16T15:52:41;38.42;;;15.70;;
74945;SDS011;63509;45.250;38.102;2023-01-16T15:55:09;44.38;;;15.68;;
74945;SDS011;63509;45.250;38.102;2023-01-16T15:57:52;29.85;;;13.88;;
74945;SDS011;63509;45.250;38.102;2023-01-16T16:00:28;32.47;;;12.23;;
74945;SDS011;63509;45.250;38.102;2023-01-16T16:03:04;36.95;;;13.27;;
74945;SDS011;63509;45.250;38.102;2023-01-16T16:06:10;41.05;;;12.65;;
74945;SDS011;63509;45.250;38.102;2023-01-16T16:08:39;42.22;;;12.00;;
74945;SDS011;63509;45.250;38.102;2023-01-16T16:11:17;35.05;;;13.77;;
74945;SDS011;63509;45.250;38.102;2023-01-16T16:14:04;43.50;;;13.50;;
74945;SDS011;63509;45.250;38.102;2023-01-16T16:17:05;28.52;;;11.95;;
74945;SDS011;63509;45.250;38.102;2023-01-16T16:23:36;40.45;;;12.68;;
74945;SDS011;63509;45.250;38.102;2023-01-16T16:33:42;28.92;;;13.38;;
74945;SDS011;63509;45.250;38.102;2023-01-16T16:36:17;42.92;;;13.23;;
74945;SDS011;63509;45.250;38.102;2023-01-16T16:38:47;30.27;;;12.73;;
74945;SDS011;63509;45.250;38.102;2023-01-16T16:43:42;41.35;;;16.42;;
74945;SDS011;63509;45.250;38.102;2023-01-16T16:48:57;31.38;;;13.57;;
74945;SDS011;63509;45.250;38.102;2023-01-16T16:51:35;27.88;;;12.05;;
74945;SDS011;63509;45.250;38.102;2023-01-16T16:54:05;33.92;;;12.95;;
74945;SDS011;63509;45.250;38.102;2023-01-16T16:56:37;28.80;;;13.35;;
74945;SDS011;63509;45.250;38.102;2023-01-16T16:59:11;29.50;;;11.95;;
74945;SDS011;63509;45.250;38.102;2023-01-16T17:01:50;32.97;;;14.30;;
74945;SDS011;63509;45.250;38.102;2023-01-16T17:04:19;38.47;;;15.48;;
74945;SDS011;63509;45.250;38.102;2023-01-16T17:06:46;22.90;;;12.38;;
74945;SDS011;63509;45.250;38.102;2023-01-16T17:09:19;28.70;;;12.38;;
74945;SDS011;63509;45.250;38.102;2023-01-16T17:11:46;30.38;;;14.80;;
74945;SDS011;63509;45.250;38.102;2023-01-16T17:14:12;20.48;;;11.32;;
74945;SDS011;63509;45.250;38.102;2023-01-16T17:16:39;23.00;;;11.70;;
74945;SDS011;63509;45.250;38.102;2023-01-16T17:21:47;36.35;;;13.70;;
74945;SDS011;63509;45.250;38.102;2023-01-16T17:24:14;25.65;;;13.80;;
74945;SDS011;63509;45.250;38.102;2023-01-16T17:26:41;31.45;;;14.30;;
74945;SDS011;63509;45.250;38.102;2023-01-16T17:29:08;31.73;;;13.88;;
74945;SDS011;63509;45.250;38.102;2023-01-16T17:31:38;32.13;;;12.25;;
74945;SDS011;63509;45.250;38.102;2023-01-16T17:34:09;44.08;;;15.38;;
74945;SDS011;63509;45.250;38.102;2023-01-16T17:36:39;27.60;;;12.73;;
74945;SDS011;63509;45.250;38.102;2023-01-16T17:39:06;41.70;;;12.77;;
74945;SDS011;63509;45.250;38.102;2023-01-16T17:41:32;35.63;;;12.57;;
74945;SDS011;63509;45.250;38.102;2023-01-16T17:44:16;35.70;;;15.43;;